Time;durP1;ratioP1;P1;durP2;ratioP2;P2;SDS_P1;SDS_P2;PMS_P1;PMS_P2;Temp;Humidity;BMP_temperature;BMP_pressure;BME280_temperature;BME280_humidity;BME280_pressure;Samples;Min_cycle;Max_cycle;Signal;HPM_P1;HPM_P2
2023/09/12 00:01:19;;;;;;;14.00;12.40;;;;;;;;;;4974546;28;20621;-55
2023/09/12 00:03:45;;;;;;;17.83;12.13;;;;;;;;;;4974635;28;20199;-54
2023/09/12 00:06:11;;;;;;;15.07;11.77;;;;;;;;;;4974425;28;20195;-52
2023/09/12 00:08:37;;;;;;;13.63;11.93;;;;;;;;;;4974481;28;20200;-54
2023/09/12 00:11:03;;;;;;;16.47;13.93;;;;;;;;;;4974385;28;20276;-54
2023/09/12 00:13:30;;;;;;;16.83;13.53;;;;;;;;;;4974212;28;20195;-54
2023/09/12 00:15:56;;;;;;;22.93;15.63;;;;;;;;;;4974309;28;20223;-55
2023/09/12 00:18:23;;;;;;;15.33;13.83;;;;;;;;;;4974405;28;20205;-54
2023/09/12 00:20:49;;;;;;;17.93;13.53;;;;;;;;;;4974272;28;20206;-54
2023/09/12 00:23:15;;;;;;;17.00;13.90;;;;;;;;;;4973917;28;20195;-55
2023/09/12 00:25:41;;;;;;;19.07;13.40;;;;;;;;;;4974122;28;20250;-54
2023/09/12 00:28:07;;;;;;;16.07;14.47;;;;;;;;;;4973905;28;20298;-54
2023/09/12 00:30:33;;;;;;;16.77;15.07;;;;;;;;;;4974009;28;20296;-54
2023/09/12 00:32:59;;;;;;;16.27;14.70;;;;;;;;;;4974043;28;20199;-54
2023/09/12 00:35:27;;;;;;;17.30;14.27;;;;;;;;;;4973668;28;20203;-54
2023/09/12 00:37:53;;;;;;;16.57;14.63;;;;;;;;;;4973933;28;20207;-54
2023/09/12 00:40:19;;;;;;;15.13;13.37;;;;;;;;;;4973486;28;20200;-54
2023/09/12 00:42:45;;;;;;;17.20;14.23;;;;;;;;;;4973749;28;20202;-54
2023/09/12 00:45:11;;;;;;;15.47;13.90;;;;;;;;;;4973670;28;20202;-54
2023/09/12 00:47:37;;;;;;;14.97;13.43;;;;;;;;;;4973764;28;20199;-55
2023/09/12 00:50:05;;;;;;;14.27;12.80;;;;;;;;;;4973656;28;20654;-54
2023/09/12 00:52:33;;;;;;;14.80;13.30;;;;;;;;;;4973593;28;20192;-54
2023/09/12 00:54:59;;;;;;;15.63;13.90;;;;;;;;;;4972234;28;20420;-54
2023/09/12 00:57:26;;;;;;;16.27;14.57;;;;;;;;;;4972097;28;20424;-54
2023/09/12 00:59:53;;;;;;;15.10;13.57;;;;;;;;;;4973440;28;20670;-54
2023/09/12 01:02:20;;;;;;;16.42;14.82;;;;;;;;;;4972222;28;20419;-54
2023/09/12 01:04:46;;;;;;;13.50;12.23;;;;;;;;;;4973540;28;20612;-54
2023/09/12 01:07:12;;;;;;;14.73;13.33;;;;;;;;;;4973113;28;20621;-54
2023/09/12 01:09:41;;;;;;;15.02;13.52;;;;;;;;;;4971986;28;20448;-54
2023/09/12 01:12:07;;;;;;;16.27;14.77;;;;;;;;;;4972169;28;20783;-54
2023/09/12 01:14:33;;;;;;;16.60;15.10;;;;;;;;;;4972009;28;20454;-54
2023/09/12 01:20:12;;;;;;;14.57;13.07;;;;;;;;;;4973050;28;20249;-54
2023/09/12 01:22:47;;;;;;;15.90;13.00;;;;;;;;;;4972974;28;20678;-54
2023/09/12 01:25:31;;;;;;;14.97;13.57;;;;;;;;;;4972908;28;20704;-54
2023/09/12 01:28:00;;;;;;;16.33;14.73;;;;;;;;;;4972512;28;20302;-54
2023/09/12 01:30:28;;;;;;;15.40;14.07;;;;;;;;;;4972882;28;20207;-54
2023/09/12 01:32:55;;;;;;;14.20;12.87;;;;;;;;;;4972742;28;20294;-54
2023/09/12 01:35:21;;;;;;;20.20;16.53;;;;;;;;;;4973349;28;20203;-54
2023/09/12 01:37:47;;;;;;;17.73;14.40;;;;;;;;;;4972635;28;20307;-54
2023/09/12 01:40:15;;;;;;;18.33;15.80;;;;;;;;;;4971537;28;20948;-54
2023/09/12 01:42:42;;;;;;;16.80;15.37;;;;;;;;;;4972649;28;20209;-54
2023/09/12 01:45:11;;;;;;;16.73;14.77;;;;;;;;;;4972793;28;20620;-54
2023/09/12 01:47:38;;;;;;;18.10;16.20;;;;;;;;;;4972659;28;20203;-54
2023/09/12 01:50:06;;;;;;;17.77;16.10;;;;;;;;;;4972302;28;20261;-54
2023/09/12 01:52:32;;;;;;;18.43;15.03;;;;;;;;;;4972361;28;20266;-54
2023/09/12 01:54:59;;;;;;;17.77;15.97;;;;;;;;;;4972497;28;20679;-54
2023/09/12 01:57:25;;;;;;;17.90;15.93;;;;;;;;;;4972464;28;20321;-54
2023/09/12 01:59:52;;;;;;;23.70;21.50;;;;;;;;;;4970104;28;20416;-54
2023/09/12 02:02:19;;;;;;;22.10;20.03;;;;;;;;;;4972718;28;20207;-54
2023/09/12 02:04:48;;;;;;;18.47;16.60;;;;;;;;;;4972362;28;20215;-54
2023/09/12 02:07:14;;;;;;;21.00;19.00;;;;;;;;;;4972396;28;20343;-54
2023/09/12 02:09:40;;;;;;;21.23;19.13;;;;;;;;;;4972301;28;20282;-55
2023/09/12 02:12:06;;;;;;;20.90;18.87;;;;;;;;;;4972628;28;20658;-54
2023/09/12 02:14:32;;;;;;;20.00;18.07;;;;;;;;;;4972316;28;20303;-54
2023/09/12 02:16:58;;;;;;;23.00;20.63;;;;;;;;;;4972563;28;20330;-54
2023/09/12 02:19:25;;;;;;;22.27;20.07;;;;;;;;;;4972312;28;20198;-54
2023/09/12 02:21:51;;;;;;;22.33;20.23;;;;;;;;;;4972340;28;20204;-53
2023/09/12 02:24:21;;;;;;;21.53;19.43;;;;;;;;;;4972535;28;20297;-53
2023/09/12 02:26:47;;;;;;;22.25;20.23;;;;;;;;;;4970837;28;20475;-53
2023/09/12 02:29:13;;;;;;;22.03;19.93;;;;;;;;;;4972181;28;20717;-53
2023/09/12 02:31:39;;;;;;;24.13;21.67;;;;;;;;;;4972159;28;20238;-54
2023/09/12 02:34:05;;;;;;;26.87;22.10;;;;;;;;;;4972415;28;20318;-51
2023/09/12 02:36:32;;;;;;;26.07;23.37;;;;;;;;;;4971964;28;20251;-52
2023/09/12 02:38:58;;;;;;;23.60;20.53;;;;;;;;;;4972390;28;20568;-54
2023/09/12 02:41:24;;;;;;;23.03;20.37;;;;;;;;;;4972119;28;20204;-53
2023/09/12 02:43:50;;;;;;;26.80;24.30;;;;;;;;;;4970923;28;20831;-52
2023/09/12 02:46:16;;;;;;;25.70;23.20;;;;;;;;;;4972152;28;20236;-53
2023/09/12 02:48:42;;;;;;;27.80;24.90;;;;;;;;;;4972067;28;20294;-53
2023/09/12 02:51:08;;;;;;;33.13;29.63;;;;;;;;;;4972229;28;20205;-54
2023/09/12 02:53:36;;;;;;;28.00;25.13;;;;;;;;;;4972060;28;20202;-54
2023/09/12 02:56:02;;;;;;;26.37;23.50;;;;;;;;;;4971736;28;20227;-54
2023/09/12 02:58:28;;;;;;;25.90;22.67;;;;;;;;;;4972252;28;20257;-53
2023/09/12 03:00:54;;;;;;;25.63;23.13;;;;;;;;;;4971811;28;20199;-54
2023/09/12 03:03:20;;;;;;;28.73;25.83;;;;;;;;;;4975373;28;20665;-53
2023/09/12 03:05:46;;;;;;;27.47;24.57;;;;;;;;;;4975341;28;20210;-54
2023/09/12 03:08:12;;;;;;;32.07;28.87;;;;;;;;;;4975453;28;20207;-54
2023/09/12 03:10:40;;;;;;;29.33;26.47;;;;;;;;;;4975345;28;20568;-53
2023/09/12 03:13:06;;;;;;;33.17;29.73;;;;;;;;;;4975577;28;20209;-53
2023/09/12 03:15:37;;;;;;;26.90;24.10;;;;;;;;;;4975390;28;20195;-54
2023/09/12 03:18:03;;;;;;;33.43;29.97;;;;;;;;;;4975346;28;20210;-53
2023/09/12 03:20:29;;;;;;;38.95;35.00;;;;;;;;;;4974087;28;20408;-54
2023/09/12 03:22:55;;;;;;;37.53;33.60;;;;;;;;;;4975027;28;20206;-53
2023/09/12 03:25:21;;;;;;;40.83;36.33;;;;;;;;;;4975147;28;20603;-50
2023/09/12 03:27:48;;;;;;;33.57;29.93;;;;;;;;;;4974907;28;20266;-51
2023/09/12 03:30:15;;;;;;;36.57;32.30;;;;;;;;;;4975164;28;20203;-51
2023/09/12 03:32:41;;;;;;;40.80;36.40;;;;;;;;;;4974918;28;20206;-54
2023/09/12 03:35:08;;;;;;;37.37;33.40;;;;;;;;;;4975187;28;20203;-54
2023/09/12 03:37:34;;;;;;;36.20;32.37;;;;;;;;;;4975076;28;20226;-54
2023/09/12 03:40:00;;;;;;;39.10;34.87;;;;;;;;;;4974780;28;20261;-54
2023/09/12 03:42:26;;;;;;;38.57;34.53;;;;;;;;;;4975066;28;20207;-54
2023/09/12 03:44:53;;;;;;;47.97;43.05;;;;;;;;;;4973553;28;20415;-54
2023/09/12 03:47:19;;;;;;;44.75;40.15;;;;;;;;;;4973694;28;20422;-54
2023/09/12 03:49:45;;;;;;;32.00;28.83;;;;;;;;;;4974671;28;20251;-54
2023/09/12 03:52:11;;;;;;;31.67;28.70;;;;;;;;;;4974915;28;20198;-54
2023/09/12 03:54:37;;;;;;;29.33;26.30;;;;;;;;;;4974735;28;20657;-53
2023/09/12 03:57:04;;;;;;;37.25;33.65;;;;;;;;;;4973598;28;20423;-53
2023/09/12 03:59:30;;;;;;;27.83;25.37;;;;;;;;;;4974565;28;20199;-54
2023/09/12 04:01:57;;;;;;;26.60;24.00;;;;;;;;;;4974369;28;20221;-54
2023/09/12 04:04:23;;;;;;;29.17;26.50;;;;;;;;;;4973318;28;20408;-54
2023/09/12 04:06:49;;;;;;;25.50;23.33;;;;;;;;;;4974467;28;20278;-54
2023/09/12 04:09:15;;;;;;;27.77;25.23;;;;;;;;;;4973107;28;20899;-54
2023/09/12 04:11:41;;;;;;;24.77;22.40;;;;;;;;;;4974249;28;20199;-54
2023/09/12 04:14:07;;;;;;;22.47;20.40;;;;;;;;;;4973760;28;20278;-54
2023/09/12 04:16:33;;;;;;;25.23;22.90;;;;;;;;;;4973141;28;20500;-54
2023/09/12 04:19:01;;;;;;;29.60;26.92;;;;;;;;;;4973164;28;20924;-53
2023/09/12 04:21:27;;;;;;;26.00;23.50;;;;;;;;;;4974089;28;20203;-54
2023/09/12 04:23:53;;;;;;;23.93;21.63;;;;;;;;;;4974128;28;20507;-54
2023/09/12 04:26:19;;;;;;;28.90;25.90;;;;;;;;;;4974030;28;20219;-54
2023/09/12 04:28:46;;;;;;;32.13;28.70;;;;;;;;;;4973844;28;20238;-54
2023/09/12 04:31:13;;;;;;;31.97;28.70;;;;;;;;;;4973951;28;20198;-53
2023/09/12 04:33:39;;;;;;;29.67;26.87;;;;;;;;;;4974103;28;20198;-54
2023/09/12 04:36:06;;;;;;;38.00;34.22;;;;;;;;;;4972568;28;20448;-54
2023/09/12 04:38:33;;;;;;;39.28;35.47;;;;;;;;;;4972569;28;20490;-54
2023/09/12 04:41:04;;;;;;;35.73;32.07;;;;;;;;;;4973691;28;20298;-54
2023/09/12 04:43:30;;;;;;;33.07;29.53;;;;;;;;;;4973788;28;20610;-54
2023/09/12 04:45:56;;;;;;;35.57;30.77;;;;;;;;;;4973553;28;20696;-54
2023/09/12 04:48:23;;;;;;;32.50;27.97;;;;;;;;;;4973650;28;20226;-53
2023/09/12 04:50:49;;;;;;;25.20;22.90;;;;;;;;;;4973598;28;20208;-54
2023/09/12 04:53:16;;;;;;;25.80;23.20;;;;;;;;;;4973560;28;20208;-54
2023/09/12 04:55:42;;;;;;;26.07;23.57;;;;;;;;;;4973612;28;20209;-54
2023/09/12 04:58:08;;;;;;;26.10;23.60;;;;;;;;;;4973830;28;20269;-54
2023/09/12 05:00:34;;;;;;;21.47;19.27;;;;;;;;;;4973545;28;20208;-54
2023/09/12 05:03:01;;;;;;;26.53;23.93;;;;;;;;;;4973293;28;20257;-54
2023/09/12 05:05:27;;;;;;;28.50;25.60;;;;;;;;;;4973341;28;20205;-54
2023/09/12 05:07:53;;;;;;;27.53;24.70;;;;;;;;;;4973430;28;20209;-54
2023/09/12 05:10:21;;;;;;;27.37;24.57;;;;;;;;;;4973186;28;20538;-54
2023/09/12 05:12:47;;;;;;;26.67;23.67;;;;;;;;;;4972949;28;20209;-54
2023/09/12 05:15:13;;;;;;;22.53;20.23;;;;;;;;;;4973117;28;20219;-54
2023/09/12 05:17:39;;;;;;;25.20;22.63;;;;;;;;;;4972883;28;20584;-54
2023/09/12 05:20:05;;;;;;;25.97;23.43;;;;;;;;;;4973048;28;20210;-54
2023/09/12 05:22:31;;;;;;;23.97;21.43;;;;;;;;;;4972763;28;20201;-54
2023/09/12 05:24:57;;;;;;;21.83;19.77;;;;;;;;;;4972845;28;20212;-53
2023/09/12 05:27:25;;;;;;;19.07;17.43;;;;;;;;;;4972808;28;20240;-54
2023/09/12 05:29:51;;;;;;;18.07;16.37;;;;;;;;;;4972909;28;20207;-53
2023/09/12 05:32:17;;;;;;;17.50;15.80;;;;;;;;;;4972998;28;20212;-54
2023/09/12 05:34:45;;;;;;;17.60;15.87;;;;;;;;;;4972952;28;20565;-54
2023/09/12 05:37:11;;;;;;;17.53;15.83;;;;;;;;;;4972420;28;20237;-54
2023/09/12 05:39:37;;;;;;;16.17;14.57;;;;;;;;;;4972787;28;20201;-53
2023/09/12 05:42:03;;;;;;;15.50;14.03;;;;;;;;;;4971903;28;20582;-54
2023/09/12 05:44:30;;;;;;;12.63;11.43;;;;;;;;;;4972675;28;20589;-54
2023/09/12 05:46:56;;;;;;;11.77;10.77;;;;;;;;;;4972104;28;20201;-54
2023/09/12 05:49:22;;;;;;;12.37;11.27;;;;;;;;;;4972628;28;20726;-54
2023/09/12 05:51:48;;;;;;;13.90;12.53;;;;;;;;;;4972377;28;20197;-52
2023/09/12 05:54:15;;;;;;;12.53;11.33;;;;;;;;;;4972604;28;20632;-52
2023/09/12 05:56:41;;;;;;;13.03;11.77;;;;;;;;;;4972381;28;20249;-53
2023/09/12 05:59:07;;;;;;;11.53;10.53;;;;;;;;;;4972875;28;20603;-54
2023/09/12 06:01:35;;;;;;;13.00;11.67;;;;;;;;;;4972733;28;20210;-53
2023/09/12 06:04:01;;;;;;;12.60;11.30;;;;;;;;;;4972322;28;20272;-53
2023/09/12 06:06:28;;;;;;;12.17;10.37;;;;;;;;;;4972428;28;20463;-53
2023/09/12 06:08:53;;;;;;;12.37;11.17;;;;;;;;;;4972408;28;20208;-53
2023/09/12 06:11:20;;;;;;;12.40;11.10;;;;;;;;;;4972663;28;20212;-53
2023/09/12 06:13:46;;;;;;;9.87;8.97;;;;;;;;;;4972415;28;20224;-53
2023/09/12 06:16:12;;;;;;;10.68;9.73;;;;;;;;;;4971020;28;20432;-53
2023/09/12 06:18:39;;;;;;;9.97;8.97;;;;;;;;;;4972406;28;20570;-53
2023/09/12 06:21:08;;;;;;;10.10;9.10;;;;;;;;;;4972402;28;20218;-53
2023/09/12 06:23:34;;;;;;;9.57;8.40;;;;;;;;;;4972463;28;20195;-53
2023/09/12 06:26:00;;;;;;;9.90;9.07;;;;;;;;;;4972120;28;20227;-53
2023/09/12 06:28:26;;;;;;;11.50;9.73;;;;;;;;;;4972099;28;20607;-54
2023/09/12 06:30:52;;;;;;;10.30;9.40;;;;;;;;;;4972356;28;20198;-54
2023/09/12 06:33:18;;;;;;;14.30;11.40;;;;;;;;;;4972446;28;20257;-53
2023/09/12 06:35:48;;;;;;;12.20;11.10;;;;;;;;;;4972020;28;20199;-53
2023/09/12 06:38:14;;;;;;;11.23;10.23;;;;;;;;;;4975347;28;20327;-53
2023/09/12 06:40:40;;;;;;;11.67;10.67;;;;;;;;;;4976006;28;20206;-58
2023/09/12 06:43:06;;;;;;;11.93;10.70;;;;;;;;;;4976143;28;20212;-54
2023/09/12 06:45:32;;;;;;;10.57;9.57;;;;;;;;;;4976149;28;20202;-54
2023/09/12 06:47:58;;;;;;;12.47;11.20;;;;;;;;;;4974599;28;20408;-54
2023/09/12 06:50:24;;;;;;;12.33;11.20;;;;;;;;;;4975858;28;20242;-54
2023/09/12 06:52:52;;;;;;;10.70;9.70;;;;;;;;;;4975863;28;20206;-54
2023/09/12 06:55:18;;;;;;;10.87;9.63;;;;;;;;;;4975902;28;20209;-54
2023/09/12 06:57:45;;;;;;;9.97;9.17;;;;;;;;;;4975654;28;20238;-53
2023/09/12 07:00:11;;;;;;;11.40;10.40;;;;;;;;;;4975564;28;20210;-54
2023/09/12 07:02:40;;;;;;;9.47;8.37;;;;;;;;;;4975709;28;20198;-55
2023/09/12 07:05:06;;;;;;;10.93;9.93;;;;;;;;;;4975455;28;20208;-57
2023/09/12 07:07:33;;;;;;;10.20;9.23;;;;;;;;;;4975448;28;20216;-53
2023/09/12 07:10:01;;;;;;;9.80;8.90;;;;;;;;;;4975414;28;20207;-54
2023/09/12 07:12:28;;;;;;;10.43;9.43;;;;;;;;;;4975585;28;20269;-54
2023/09/12 07:14:55;;;;;;;10.33;8.63;;;;;;;;;;4973352;28;20578;-55
2023/09/12 07:17:21;;;;;;;12.80;11.50;;;;;;;;;;4974645;28;20738;-54
2023/09/12 07:19:47;;;;;;;11.90;10.90;;;;;;;;;;4975014;28;20202;-54
2023/09/12 07:22:13;;;;;;;12.57;9.93;;;;;;;;;;4974967;28;20255;-54
2023/09/12 07:24:39;;;;;;;10.03;9.17;;;;;;;;;;4974912;28;20625;-54
2023/09/12 07:27:07;;;;;;;10.37;9.27;;;;;;;;;;4974767;28;20273;-54
2023/09/12 07:29:33;;;;;;;11.80;10.80;;;;;;;;;;4973757;28;20969;-54
2023/09/12 07:31:59;;;;;;;10.50;9.50;;;;;;;;;;4974214;28;20409;-54
2023/09/12 07:34:25;;;;;;;10.25;9.38;;;;;;;;;;4974263;28;20843;-55
2023/09/12 07:36:51;;;;;;;9.37;8.47;;;;;;;;;;4975181;28;20230;-54
2023/09/12 07:39:17;;;;;;;8.90;8.10;;;;;;;;;;4975263;28;20290;-54
2023/09/12 07:41:43;;;;;;;9.07;8.23;;;;;;;;;;4975138;28;20286;-54
2023/09/12 07:44:11;;;;;;;11.10;10.00;;;;;;;;;;4975216;28;20690;-54
2023/09/12 07:46:37;;;;;;;10.53;7.90;;;;;;;;;;4975007;28;20685;-54
2023/09/12 07:49:03;;;;;;;9.83;8.93;;;;;;;;;;4973872;28;20202;-54
2023/09/12 07:51:29;;;;;;;8.63;7.73;;;;;;;;;;4975017;28;20253;-55
2023/09/12 07:53:55;;;;;;;7.80;7.10;;;;;;;;;;4974883;28;20207;-54
2023/09/12 07:56:21;;;;;;;10.70;7.87;;;;;;;;;;4975024;28;20227;-54
2023/09/12 07:58:47;;;;;;;9.60;8.80;;;;;;;;;;4973500;28;20906;-54
2023/09/12 08:01:14;;;;;;;9.75;8.95;;;;;;;;;;4973698;28;20408;-54
2023/09/12 08:03:42;;;;;;;10.70;9.80;;;;;;;;;;4973291;28;20427;-55
2023/09/12 08:06:08;;;;;;;9.10;7.77;;;;;;;;;;4974670;28;20604;-54
2023/09/12 08:08:37;;;;;;;;;;;;;;;;;;4975001;28;20774;-54
2023/09/12 08:11:03;;;;;;;9.57;8.67;;;;;;;;;;4974400;28;20050;-54
2023/09/12 08:13:30;;;;;;;10.57;9.63;;;;;;;;;;4974187;28;20306;-54
2023/09/12 08:15:56;;;;;;;12.17;11.07;;;;;;;;;;4974156;28;20209;-54
2023/09/12 08:18:28;;;;;;;11.87;10.73;;;;;;;;;;4974083;28;20203;-54
2023/09/12 08:20:54;;;;;;;13.45;12.05;;;;;;;;;;4972881;28;20917;-54
2023/09/12 08:23:20;;;;;;;13.43;12.25;;;;;;;;;;4973283;28;20408;-54
2023/09/12 08:25:46;;;;;;;13.70;12.60;;;;;;;;;;4972770;28;20412;-54
2023/09/12 08:28:12;;;;;;;12.07;11.07;;;;;;;;;;4972880;28;20483;-57
2023/09/12 08:30:38;;;;;;;13.63;12.43;;;;;;;;;;4972924;28;20408;-54
2023/09/12 08:33:06;;;;;;;11.93;10.73;;;;;;;;;;4974089;28;20277;-53
2023/09/12 08:35:33;;;;;;;13.02;11.73;;;;;;;;;;4972767;28;20411;-53
2023/09/12 08:38:00;;;;;;;13.68;12.27;;;;;;;;;;4972492;28;20431;-54
2023/09/12 08:40:26;;;;;;;13.00;11.67;;;;;;;;;;4972705;28;20400;-54
2023/09/12 08:42:52;;;;;;;10.13;9.07;;;;;;;;;;4973591;28;20210;-52
2023/09/12 08:45:19;;;;;;;11.03;9.83;;;;;;;;;;4973970;28;20226;-54
2023/09/12 08:47:46;;;;;;;11.30;10.18;;;;;;;;;;4972118;28;20442;-54
2023/09/12 08:50:13;;;;;;;13.05;11.82;;;;;;;;;;4972412;28;20507;-54
2023/09/12 08:52:41;;;;;;;12.90;11.60;;;;;;;;;;4972359;28;20412;-54
2023/09/12 08:55:08;;;;;;;11.97;10.67;;;;;;;;;;4973589;28;20214;-54
2023/09/12 08:57:36;;;;;;;13.95;12.55;;;;;;;;;;4972147;28;20774;-54
2023/09/12 09:00:09;;;;;;;11.87;10.07;;;;;;;;;;4973145;28;20204;-55
2023/09/12 09:02:35;;;;;;;11.65;10.55;;;;;;;;;;4972353;28;20450;-54
2023/09/12 09:05:04;;;;;;;13.40;12.10;;;;;;;;;;4971747;28;20428;-54
2023/09/12 09:07:31;;;;;;;15.00;13.50;;;;;;;;;;4972175;28;20408;-55
2023/09/12 09:09:58;;;;;;;12.63;11.43;;;;;;;;;;4973184;28;20202;-55
2023/09/12 09:12:24;;;;;;;12.23;11.00;;;;;;;;;;4973468;28;20265;-54
2023/09/12 09:14:50;;;;;;;13.33;11.90;;;;;;;;;;4973270;28;20209;-54
2023/09/12 09:17:16;;;;;;;14.45;13.15;;;;;;;;;;4971937;28;20778;-54
2023/09/12 09:19:43;;;;;;;11.05;10.05;;;;;;;;;;4971786;28;20881;-54
2023/09/12 09:22:09;;;;;;;10.20;9.30;;;;;;;;;;4971768;28;20431;-54
2023/09/12 09:24:35;;;;;;;12.85;11.65;;;;;;;;;;4972072;28;20746;-54
2023/09/12 09:27:03;;;;;;;13.05;11.85;;;;;;;;;;4971533;28;20413;-54
2023/09/12 09:29:31;;;;;;;11.93;10.93;;;;;;;;;;4971696;28;20450;-54
2023/09/12 09:31:59;;;;;;;11.63;10.57;;;;;;;;;;4971246;28;20420;-53
2023/09/12 09:34:29;;;;;;;11.00;10.10;;;;;;;;;;4971546;28;20479;-54
2023/09/12 09:36:56;;;;;;;12.27;10.98;;;;;;;;;;4971332;28;20458;-54
2023/09/12 09:39:26;;;;;;;11.95;10.75;;;;;;;;;;4971650;28;20822;-54
2023/09/12 09:41:54;;;;;;;9.95;9.05;;;;;;;;;;4971003;28;20404;-54
2023/09/12 09:44:23;;;;;;;12.23;10.93;;;;;;;;;;4971548;28;20480;-54
2023/09/12 09:46:52;;;;;;;10.73;9.65;;;;;;;;;;4958158;28;20844;-54
2023/09/12 09:49:20;;;;;;;11.63;10.52;;;;;;;;;;4952360;28;20410;-55
2023/09/12 09:51:46;;;;;;;11.57;10.48;;;;;;;;;;4952123;28;20928;-54
2023/09/12 09:54:13;;;;;;;9.48;8.55;;;;;;;;;;4952443;28;20872;-54
2023/09/12 09:56:45;;;;;;;9.25;8.45;;;;;;;;;;4952355;28;20466;-54
2023/09/12 09:59:14;;;;;;;11.00;9.93;;;;;;;;;;4952520;28;20413;-54
2023/09/12 10:01:42;;;;;;;8.88;8.07;;;;;;;;;;4952324;28;20418;-54
2023/09/12 10:04:08;;;;;;;11.60;10.60;;;;;;;;;;4952360;28;20414;-54
2023/09/12 10:06:36;;;;;;;11.97;10.77;;;;;;;;;;4950549;28;20410;-54
2023/09/12 10:09:06;;;;;;;10.07;9.18;;;;;;;;;;4951731;28;20414;-54
2023/09/12 10:11:33;;;;;;;9.05;8.25;;;;;;;;;;4951388;28;20405;-54
2023/09/12 10:14:00;;;;;;;9.95;8.95;;;;;;;;;;4951727;28;20429;-53
2023/09/12 10:16:30;;;;;;;9.13;8.32;;;;;;;;;;4951762;28;20489;-53
2023/09/12 10:19:00;;;;;;;8.00;7.30;;;;;;;;;;4951644;28;20409;-53
2023/09/12 10:21:29;;;;;;;10.15;9.20;;;;;;;;;;4951673;28;20413;-53
2023/09/12 10:23:57;;;;;;;8.40;7.60;;;;;;;;;;4951710;28;20750;-53
2023/09/12 10:26:23;;;;;;;7.90;7.10;;;;;;;;;;4951808;28;20492;-53
2023/09/12 10:28:51;;;;;;;7.57;6.97;;;;;;;;;;4951726;28;20512;-53
2023/09/12 10:31:17;;;;;;;7.80;7.10;;;;;;;;;;4951768;28;20497;-53
2023/09/12 10:33:44;;;;;;;7.75;7.05;;;;;;;;;;4951630;28;20410;-54
2023/09/12 10:36:12;;;;;;;7.67;6.90;;;;;;;;;;4951385;28;20440;-54
2023/09/12 10:38:41;;;;;;;7.43;6.72;;;;;;;;;;4951673;28;20409;-53
2023/09/12 10:41:09;;;;;;;9.68;8.77;;;;;;;;;;4951690;28;20488;-54
2023/09/12 10:43:35;;;;;;;9.23;8.25;;;;;;;;;;4951670;28;20453;-52
2023/09/12 10:46:03;;;;;;;8.93;8.23;;;;;;;;;;4951548;28;20418;-53
2023/09/12 10:48:29;;;;;;;8.18;7.38;;;;;;;;;;4951480;28;20412;-53
2023/09/12 10:50:57;;;;;;;8.32;7.40;;;;;;;;;;4951433;28;20409;-54
2023/09/12 10:53:28;;;;;;;8.57;7.68;;;;;;;;;;4951824;28;20780;-54
2023/09/12 10:56:01;;;;;;;9.30;8.37;;;;;;;;;;4951487;28;20499;-54
2023/09/12 10:58:27;;;;;;;8.93;8.02;;;;;;;;;;4951419;28;20430;-53
2023/09/12 11:01:12;;;;;;;8.82;7.93;;;;;;;;;;4951462;28;20410;-53
2023/09/12 11:03:39;;;;;;;9.00;8.20;;;;;;;;;;4951451;29;20409;-52
2023/09/12 11:06:20;;;;;;;9.90;9.07;;;;;;;;;;4951261;28;20426;-53
2023/09/12 11:09:10;;;;;;;10.90;9.87;;;;;;;;;;4951478;28;20506;-53
2023/09/12 11:11:36;;;;;;;11.40;10.30;;;;;;;;;;4951339;28;20451;-54
2023/09/12 11:14:05;;;;;;;10.55;9.60;;;;;;;;;;4951332;28;20413;-52
2023/09/12 11:16:31;;;;;;;12.48;11.18;;;;;;;;;;4951199;28;20410;-53
2023/09/12 11:19:16;;;;;;;12.25;11.05;;;;;;;;;;4960106;28;20446;-52
2023/09/12 11:21:44;;;;;;;12.80;11.50;;;;;;;;;;4984924;28;20398;-53
2023/09/12 11:24:11;;;;;;;13.30;12.03;;;;;;;;;;4992581;28;20417;-53
2023/09/12 11:26:53;;;;;;;15.23;13.93;;;;;;;;;;4993377;28;20828;-53
2023/09/12 11:29:20;;;;;;;14.13;12.93;;;;;;;;;;4993146;28;20485;-53
2023/09/12 11:31:52;;;;;;;13.93;12.63;;;;;;;;;;4993327;28;20415;-53
2023/09/12 11:34:18;;;;;;;16.25;14.65;;;;;;;;;;4993237;28;20421;-53
2023/09/12 11:36:46;;;;;;;14.88;13.45;;;;;;;;;;4993004;28;20418;-53
2023/09/12 11:39:27;;;;;;;14.45;13.10;;;;;;;;;;4993211;28;20421;-52
2023/09/12 11:41:54;;;;;;;14.98;13.57;;;;;;;;;;4991216;28;20485;-53
2023/09/12 11:44:20;;;;;;;13.55;12.25;;;;;;;;;;4991571;28;20813;-52
2023/09/12 11:46:49;;;;;;;13.00;11.80;;;;;;;;;;4992967;28;20489;-52
2023/09/12 11:49:15;;;;;;;14.57;13.07;;;;;;;;;;4993086;28;20406;-54
2023/09/12 11:51:47;;;;;;;14.03;12.73;;;;;;;;;;4993113;28;20406;-55
2023/09/12 11:54:14;;;;;;;12.97;11.77;;;;;;;;;;4993233;28;20429;-54
2023/09/12 11:56:41;;;;;;;14.07;12.82;;;;;;;;;;4993235;28;20446;-54
2023/09/12 11:59:08;;;;;;;12.32;11.23;;;;;;;;;;4993112;28;20418;-54
2023/09/12 12:01:34;;;;;;;12.82;11.73;;;;;;;;;;4993201;28;20406;-52
2023/09/12 12:04:00;;;;;;;12.52;11.40;;;;;;;;;;4992955;28;20418;-52
2023/09/12 12:06:26;;;;;;;12.27;11.23;;;;;;;;;;4992652;28;20411;-52
2023/09/12 12:08:54;;;;;;;11.60;10.60;;;;;;;;;;4990898;28;20956;-52
2023/09/12 12:11:20;;;;;;;10.75;9.77;;;;;;;;;;4992299;28;20461;-51
2023/09/12 12:13:48;;;;;;;10.57;9.57;;;;;;;;;;4992184;28;20877;-52
2023/09/12 12:16:17;;;;;;;9.35;8.48;;;;;;;;;;4992322;28;20596;-52
2023/09/12 12:18:43;;;;;;;8.98;8.27;;;;;;;;;;4992152;28;20517;-52
2023/09/12 12:21:09;;;;;;;8.32;7.63;;;;;;;;;;4991977;28;20415;-52
2023/09/12 12:23:35;;;;;;;7.13;6.53;;;;;;;;;;4992537;28;20430;-53
2023/09/12 12:26:03;;;;;;;7.10;6.40;;;;;;;;;;4991923;28;20825;-52
2023/09/12 12:28:31;;;;;;;5.60;5.00;;;;;;;;;;4992180;28;20407;-52
2023/09/12 12:30:58;;;;;;;5.38;4.95;;;;;;;;;;4992016;28;20805;-52
2023/09/12 12:33:24;;;;;;;5.75;5.25;;;;;;;;;;4992149;28;20411;-52
2023/09/12 12:35:59;;;;;;;4.90;4.50;;;;;;;;;;4991502;28;20881;-52
2023/09/12 12:38:25;;;;;;;5.20;4.80;;;;;;;;;;4992098;28;20422;-51
2023/09/12 12:40:51;;;;;;;4.20;3.90;;;;;;;;;;4991973;28;20485;-51
2023/09/12 12:43:19;;;;;;;4.13;3.72;;;;;;;;;;4991756;28;20410;-52
2023/09/12 12:45:53;;;;;;;3.55;3.25;;;;;;;;;;4991567;28;20410;-51
2023/09/12 12:48:29;;;;;;;4.18;3.88;;;;;;;;;;4991074;28;20450;-52
2023/09/12 12:50:56;;;;;;;4.30;2.90;;;;;;;;;;4992000;28;20204;-52
2023/09/12 12:53:37;;;;;;;3.83;3.50;;;;;;;;;;4991917;28;20414;-52
2023/09/12 12:56:03;;;;;;;4.30;3.50;;;;;;;;;;4991642;28;20457;-52
2023/09/12 12:58:29;;;;;;;3.47;3.17;;;;;;;;;;4992616;28;20223;-52
2023/09/12 13:00:55;;;;;;;3.20;2.90;;;;;;;;;;4991412;28;20413;-52
2023/09/12 13:03:22;;;;;;;3.60;3.30;;;;;;;;;;4991756;28;20812;-52
2023/09/12 13:05:48;;;;;;;3.37;2.97;;;;;;;;;;4991601;28;20493;-52
2023/09/12 13:08:14;;;;;;;2.67;2.47;;;;;;;;;;4992541;28;20194;-52
2023/09/12 13:10:42;;;;;;;3.10;2.90;;;;;;;;;;4992629;28;20294;-52
2023/09/12 13:13:08;;;;;;;3.23;2.87;;;;;;;;;;4992362;28;20202;-52
2023/09/12 13:15:34;;;;;;;2.90;2.63;;;;;;;;;;4992600;28;20201;-52
2023/09/12 13:18:01;;;;;;;3.13;2.50;;;;;;;;;;4992055;28;20232;-52
2023/09/12 13:20:28;;;;;;;2.90;2.70;;;;;;;;;;4992432;28;20255;-52
2023/09/12 13:22:54;;;;;;;4.10;3.05;;;;;;;;;;4991219;28;20407;-52
2023/09/12 13:25:23;;;;;;;3.10;2.80;;;;;;;;;;4992515;28;20305;-53
2023/09/12 13:27:49;;;;;;;3.10;2.80;;;;;;;;;;4992627;28;20261;-51
2023/09/12 13:30:15;;;;;;;2.80;2.60;;;;;;;;;;4992588;28;20260;-52
2023/09/12 13:32:41;;;;;;;3.20;2.90;;;;;;;;;;4992560;28;20679;-52
2023/09/12 13:35:07;;;;;;;2.80;2.60;;;;;;;;;;4991287;28;20446;-52
2023/09/12 13:37:35;;;;;;;3.63;3.33;;;;;;;;;;4990504;28;20226;-52
2023/09/12 13:40:01;;;;;;;3.77;3.40;;;;;;;;;;4991886;28;20229;-52
2023/09/12 13:42:30;;;;;;;3.53;3.20;;;;;;;;;;4991444;28;20206;-52
2023/09/12 13:44:56;;;;;;;4.20;3.80;;;;;;;;;;4991699;28;20710;-51
2023/09/12 13:47:23;;;;;;;4.50;3.63;;;;;;;;;;4991122;28;20197;-53
2023/09/12 13:49:51;;;;;;;3.33;3.00;;;;;;;;;;4991481;28;20204;-52
2023/09/12 13:52:17;;;;;;;4.20;3.67;;;;;;;;;;4990559;28;20438;-52
2023/09/12 13:54:45;;;;;;;3.70;3.37;;;;;;;;;;4991727;28;20260;-52
2023/09/12 13:57:11;;;;;;;2.50;2.30;;;;;;;;;;4991418;28;20223;-53
2023/09/12 13:59:37;;;;;;;3.60;2.77;;;;;;;;;;4991889;28;20316;-52
2023/09/12 14:02:03;;;;;;;2.90;2.70;;;;;;;;;;4991696;28;20200;-53
2023/09/12 14:04:29;;;;;;;2.77;2.40;;;;;;;;;;4991842;28;20199;-52
2023/09/12 14:06:55;;;;;;;2.70;2.40;;;;;;;;;;4991290;28;20212;-53
2023/09/12 14:09:21;;;;;;;2.80;2.60;;;;;;;;;;4991731;28;20201;-52
2023/09/12 14:11:49;;;;;;;2.93;2.40;;;;;;;;;;4991895;28;20290;-53
2023/09/12 14:14:16;;;;;;;2.83;2.50;;;;;;;;;;4991657;28;20298;-52
2023/09/12 14:16:43;;;;;;;3.43;2.97;;;;;;;;;;4991480;28;20200;-53
2023/09/12 14:19:10;;;;;;;4.10;2.63;;;;;;;;;;4991117;28;20205;-52
2023/09/12 14:21:36;;;;;;;3.03;2.70;;;;;;;;;;4991754;28;20224;-53
2023/09/12 14:24:02;;;;;;;2.60;2.40;;;;;;;;;;4991494;28;20267;-52
2023/09/12 14:26:28;;;;;;;3.07;2.80;;;;;;;;;;4991434;28;20304;-52
2023/09/12 14:28:56;;;;;;;3.23;2.83;;;;;;;;;;4991109;28;20320;-53